sensor_id;sensor_type;location;lat;lon;timestamp;P1;durP1;ratioP1;P2;durP2;ratioP2
11531;SDS011;5822;51.000;5.874;2023-11-21T00:00:15;18.20;;;17.20;;
11531;SDS011;5822;51.000;5.874;2023-11-21T00:02:41;18.25;;;17.25;;
11531;SDS011;5822;51.000;5.874;2023-11-21T00:05:09;18.42;;;17.42;;
11531;SDS011;5822;51.000;5.874;2023-11-21T00:07:36;19.00;;;18.00;;
11531;SDS011;5822;51.000;5.874;2023-11-21T00:10:02;18.95;;;17.95;;
11531;SDS011;5822;51.000;5.874;2023-11-21T00:12:30;19.10;;;18.00;;
11531;SDS011;5822;51.000;5.874;2023-11-21T00:14:56;18.88;;;17.83;;
11531;SDS011;5822;51.000;5.874;2023-11-21T00:17:22;19.40;;;18.40;;
11531;SDS011;5822;51.000;5.874;2023-11-21T00:19:48;19.27;;;18.17;;
11531;SDS011;5822;51.000;5.874;2023-11-21T00:22:14;18.88;;;17.88;;
11531;SDS011;5822;51.000;5.874;2023-11-21T00:24:41;18.52;;;17.50;;
11531;SDS011;5822;51.000;5.874;2023-11-21T00:27:06;18.70;;;17.70;;
11531;SDS011;5822;51.000;5.874;2023-11-21T00:29:32;18.63;;;17.63;;
11531;SDS011;5822;51.000;5.874;2023-11-21T00:31:58;18.75;;;17.75;;
11531;SDS011;5822;51.000;5.874;2023-11-21T00:34:23;18.13;;;17.23;;
11531;SDS011;5822;51.000;5.874;2023-11-21T00:36:49;18.70;;;17.70;;
11531;SDS011;5822;51.000;5.874;2023-11-21T00:39:14;18.17;;;17.23;;
11531;SDS011;5822;51.000;5.874;2023-11-21T00:41:40;18.73;;;17.63;;
11531;SDS011;5822;51.000;5.874;2023-11-21T00:44:07;19.30;;;18.20;;
11531;SDS011;5822;51.000;5.874;2023-11-21T00:46:32;18.98;;;17.98;;
11531;SDS011;5822;51.000;5.874;2023-11-21T00:48:58;19.00;;;18.00;;
11531;SDS011;5822;51.000;5.874;2023-11-21T00:51:24;18.85;;;17.85;;
11531;SDS011;5822;51.000;5.874;2023-11-21T00:53:49;18.73;;;17.73;;
11531;SDS011;5822;51.000;5.874;2023-11-21T00:56:15;18.73;;;17.73;;
11531;SDS011;5822;51.000;5.874;2023-11-21T00:58:41;19.87;;;18.77;;
11531;SDS011;5822;51.000;5.874;2023-11-21T01:01:11;19.95;;;18.85;;
11531;SDS011;5822;51.000;5.874;2023-11-21T01:03:37;20.60;;;19.47;;
11531;SDS011;5822;51.000;5.874;2023-11-21T01:06:03;20.33;;;19.23;;
11531;SDS011;5822;51.000;5.874;2023-11-21T01:08:32;21.02;;;19.83;;
11531;SDS011;5822;51.000;5.874;2023-11-21T01:10:58;20.98;;;19.77;;
11531;SDS011;5822;51.000;5.874;2023-11-21T01:13:24;21.38;;;20.08;;
11531;SDS011;5822;51.000;5.874;2023-11-21T01:15:53;21.15;;;19.95;;
11531;SDS011;5822;51.000;5.874;2023-11-21T01:18:19;21.48;;;20.27;;
11531;SDS011;5822;51.000;5.874;2023-11-21T01:20:45;20.55;;;19.35;;
11531;SDS011;5822;51.000;5.874;2023-11-21T01:23:12;20.95;;;19.75;;
11531;SDS011;5822;51.000;5.874;2023-11-21T01:25:38;20.83;;;19.63;;
11531;SDS011;5822;51.000;5.874;2023-11-21T01:28:03;21.17;;;19.97;;
11531;SDS011;5822;51.000;5.874;2023-11-21T01:30:29;21.38;;;20.17;;
11531;SDS011;5822;51.000;5.874;2023-11-21T01:32:56;20.80;;;19.60;;
11531;SDS011;5822;51.000;5.874;2023-11-21T01:35:22;20.75;;;19.55;;
11531;SDS011;5822;51.000;5.874;2023-11-21T01:37:47;19.77;;;18.67;;
11531;SDS011;5822;51.000;5.874;2023-11-21T01:40:13;20.63;;;19.42;;
11531;SDS011;5822;51.000;5.874;2023-11-21T01:42:39;20.58;;;19.38;;
11531;SDS011;5822;51.000;5.874;2023-11-21T01:45:05;20.23;;;19.03;;
11531;SDS011;5822;51.000;5.874;2023-11-21T01:47:32;20.50;;;19.33;;
11531;SDS011;5822;51.000;5.874;2023-11-21T01:49:59;21.20;;;20.00;;
11531;SDS011;5822;51.000;5.874;2023-11-21T01:52:25;21.15;;;19.95;;
11531;SDS011;5822;51.000;5.874;2023-11-21T01:54:51;21.65;;;20.35;;
11531;SDS011;5822;51.000;5.874;2023-11-21T01:57:18;21.15;;;19.95;;
11531;SDS011;5822;51.000;5.874;2023-11-21T01:59:45;21.92;;;20.63;;
11531;SDS011;5822;51.000;5.874;2023-11-21T02:02:13;21.52;;;20.23;;
11531;SDS011;5822;51.000;5.874;2023-11-21T02:04:39;21.27;;;20.08;;
11531;SDS011;5822;51.000;5.874;2023-11-21T02:07:05;21.20;;;20.00;;
11531;SDS011;5822;51.000;5.874;2023-11-21T02:09:31;20.67;;;19.48;;
11531;SDS011;5822;51.000;5.874;2023-11-21T02:11:58;20.08;;;18.98;;
11531;SDS011;5822;51.000;5.874;2023-11-21T02:14:25;20.40;;;19.20;;
11531;SDS011;5822;51.000;5.874;2023-11-21T02:16:53;20.90;;;19.70;;
11531;SDS011;5822;51.000;5.874;2023-11-21T02:19:19;21.30;;;20.10;;
11531;SDS011;5822;51.000;5.874;2023-11-21T02:21:50;21.40;;;20.20;;
11531;SDS011;5822;51.000;5.874;2023-11-21T02:24:21;21.33;;;20.10;;
11531;SDS011;5822;51.000;5.874;2023-11-21T02:26:47;20.43;;;19.27;;
11531;SDS011;5822;51.000;5.874;2023-11-21T02:29:13;21.02;;;19.83;;
11531;SDS011;5822;51.000;5.874;2023-11-21T02:31:42;21.35;;;20.15;;
11531;SDS011;5822;51.000;5.874;2023-11-21T02:34:15;20.10;;;18.93;;
11531;SDS011;5822;51.000;5.874;2023-11-21T02:36:45;21.08;;;19.88;;
11531;SDS011;5822;51.000;5.874;2023-11-21T02:39:10;21.35;;;20.15;;
11531;SDS011;5822;51.000;5.874;2023-11-21T02:41:39;21.10;;;19.90;;
11531;SDS011;5822;51.000;5.874;2023-11-21T02:44:05;21.20;;;19.90;;
11531;SDS011;5822;51.000;5.874;2023-11-21T02:46:34;20.97;;;19.77;;
11531;SDS011;5822;51.000;5.874;2023-11-21T02:49:01;21.25;;;20.05;;
11531;SDS011;5822;51.000;5.874;2023-11-21T02:51:27;21.75;;;20.45;;
11531;SDS011;5822;51.000;5.874;2023-11-21T02:53:53;21.25;;;20.05;;
11531;SDS011;5822;51.000;5.874;2023-11-21T02:56:19;21.97;;;20.67;;
11531;SDS011;5822;51.000;5.874;2023-11-21T02:58:45;21.83;;;20.53;;
11531;SDS011;5822;51.000;5.874;2023-11-21T03:01:11;20.77;;;19.57;;
11531;SDS011;5822;51.000;5.874;2023-11-21T03:03:38;21.40;;;20.15;;
11531;SDS011;5822;51.000;5.874;2023-11-21T03:06:05;20.23;;;19.02;;
11531;SDS011;5822;51.000;5.874;2023-11-21T03:08:31;21.07;;;19.87;;
11531;SDS011;5822;51.000;5.874;2023-11-21T03:10:57;20.75;;;19.55;;
11531;SDS011;5822;51.000;5.874;2023-11-21T03:13:23;21.27;;;19.98;;
11531;SDS011;5822;51.000;5.874;2023-11-21T03:15:49;21.40;;;20.10;;
11531;SDS011;5822;51.000;5.874;2023-11-21T03:18:14;21.05;;;19.85;;
11531;SDS011;5822;51.000;5.874;2023-11-21T03:20:40;20.07;;;18.87;;
11531;SDS011;5822;51.000;5.874;2023-11-21T03:23:06;20.08;;;18.92;;
11531;SDS011;5822;51.000;5.874;2023-11-21T03:25:32;20.50;;;19.35;;
11531;SDS011;5822;51.000;5.874;2023-11-21T03:27:57;19.60;;;18.50;;
11531;SDS011;5822;51.000;5.874;2023-11-21T03:30:23;20.75;;;19.55;;
11531;SDS011;5822;51.000;5.874;2023-11-21T03:32:49;20.10;;;18.90;;
11531;SDS011;5822;51.000;5.874;2023-11-21T03:35:14;20.50;;;19.30;;
11531;SDS011;5822;51.000;5.874;2023-11-21T03:37:40;19.40;;;18.30;;
11531;SDS011;5822;51.000;5.874;2023-11-21T03:40:07;20.23;;;19.03;;
11531;SDS011;5822;51.000;5.874;2023-11-21T03:42:37;20.58;;;19.38;;
11531;SDS011;5822;51.000;5.874;2023-11-21T03:45:03;20.13;;;18.92;;
11531;SDS011;5822;51.000;5.874;2023-11-21T03:47:30;20.38;;;19.17;;
11531;SDS011;5822;51.000;5.874;2023-11-21T03:49:55;20.67;;;19.48;;
11531;SDS011;5822;51.000;5.874;2023-11-21T03:52:21;20.90;;;19.70;;
11531;SDS011;5822;51.000;5.874;2023-11-21T03:54:46;21.43;;;20.23;;
11531;SDS011;5822;51.000;5.874;2023-11-21T03:57:12;20.70;;;19.50;;
11531;SDS011;5822;51.000;5.874;2023-11-21T03:59:41;20.83;;;19.63;;
11531;SDS011;5822;51.000;5.874;2023-11-21T04:02:08;20.63;;;19.42;;
11531;SDS011;5822;51.000;5.874;2023-11-21T04:04:35;21.00;;;19.80;;
11531;SDS011;5822;51.000;5.874;2023-11-21T04:07:01;20.92;;;19.73;;
11531;SDS011;5822;51.000;5.874;2023-11-21T04:09:26;20.38;;;19.17;;
11531;SDS011;5822;51.000;5.874;2023-11-21T04:11:53;21.05;;;19.85;;
11531;SDS011;5822;51.000;5.874;2023-11-21T04:14:19;21.10;;;19.83;;
11531;SDS011;5822;51.000;5.874;2023-11-21T04:16:45;21.27;;;20.08;;
11531;SDS011;5822;51.000;5.874;2023-11-21T04:19:10;21.83;;;20.53;;
11531;SDS011;5822;51.000;5.874;2023-11-21T04:21:39;22.30;;;21.00;;
11531;SDS011;5822;51.000;5.874;2023-11-21T04:24:08;21.85;;;20.55;;
11531;SDS011;5822;51.000;5.874;2023-11-21T04:26:33;21.87;;;20.57;;
11531;SDS011;5822;51.000;5.874;2023-11-21T04:28:59;21.55;;;20.25;;
11531;SDS011;5822;51.000;5.874;2023-11-21T04:31:25;22.05;;;20.75;;
11531;SDS011;5822;51.000;5.874;2023-11-21T04:33:50;22.90;;;21.50;;
11531;SDS011;5822;51.000;5.874;2023-11-21T04:36:16;22.75;;;21.35;;
11531;SDS011;5822;51.000;5.874;2023-11-21T04:38:42;22.40;;;21.00;;
11531;SDS011;5822;51.000;5.874;2023-11-21T04:41:08;23.42;;;21.92;;
11531;SDS011;5822;51.000;5.874;2023-11-21T04:43:33;22.93;;;21.50;;
11531;SDS011;5822;51.000;5.874;2023-11-21T04:45:59;24.47;;;22.87;;
11531;SDS011;5822;51.000;5.874;2023-11-21T04:48:25;24.35;;;22.85;;
11531;SDS011;5822;51.000;5.874;2023-11-21T04:50:50;23.93;;;22.43;;
11531;SDS011;5822;51.000;5.874;2023-11-21T04:53:16;23.98;;;22.48;;
11531;SDS011;5822;51.000;5.874;2023-11-21T04:55:42;23.92;;;22.42;;
11531;SDS011;5822;51.000;5.874;2023-11-21T04:58:08;24.02;;;22.52;;
11531;SDS011;5822;51.000;5.874;2023-11-21T05:00:34;23.98;;;22.48;;
11531;SDS011;5822;51.000;5.874;2023-11-21T05:03:01;25.10;;;23.50;;
11531;SDS011;5822;51.000;5.874;2023-11-21T05:05:28;24.60;;;23.10;;
11531;SDS011;5822;51.000;5.874;2023-11-21T05:07:55;23.73;;;22.23;;
11531;SDS011;5822;51.000;5.874;2023-11-21T05:10:20;24.00;;;22.50;;
11531;SDS011;5822;51.000;5.874;2023-11-21T05:12:47;24.65;;;23.05;;
11531;SDS011;5822;51.000;5.874;2023-11-21T05:15:15;24.15;;;22.65;;
11531;SDS011;5822;51.000;5.874;2023-11-21T05:17:42;25.43;;;23.73;;
11531;SDS011;5822;51.000;5.874;2023-11-21T05:20:12;27.20;;;25.27;;
11531;SDS011;5822;51.000;5.874;2023-11-21T05:22:38;26.77;;;24.85;;
11531;SDS011;5822;51.000;5.874;2023-11-21T05:25:05;25.80;;;24.00;;
11531;SDS011;5822;51.000;5.874;2023-11-21T05:27:33;26.35;;;24.45;;
11531;SDS011;5822;51.000;5.874;2023-11-21T05:29:59;25.98;;;24.08;;
11531;SDS011;5822;51.000;5.874;2023-11-21T05:32:31;26.50;;;24.50;;
11531;SDS011;5822;51.000;5.874;2023-11-21T05:34:57;27.00;;;25.00;;
11531;SDS011;5822;51.000;5.874;2023-11-21T05:37:24;26.92;;;24.92;;
11531;SDS011;5822;51.000;5.874;2023-11-21T05:39:51;27.02;;;25.02;;
11531;SDS011;5822;51.000;5.874;2023-11-21T05:42:23;26.58;;;24.58;;
11531;SDS011;5822;51.000;5.874;2023-11-21T05:44:48;29.05;;;26.75;;
11531;SDS011;5822;51.000;5.874;2023-11-21T05:47:14;27.38;;;25.38;;
11531;SDS011;5822;51.000;5.874;2023-11-21T05:49:40;28.60;;;26.40;;
11531;SDS011;5822;51.000;5.874;2023-11-21T05:52:05;28.50;;;26.23;;
11531;SDS011;5822;51.000;5.874;2023-11-21T05:54:32;30.50;;;28.10;;
11531;SDS011;5822;51.000;5.874;2023-11-21T05:56:57;27.42;;;25.33;;
11531;SDS011;5822;51.000;5.874;2023-11-21T05:59:24;28.38;;;26.17;;
11531;SDS011;5822;51.000;5.874;2023-11-21T06:01:49;28.47;;;26.17;;
11531;SDS011;5822;51.000;5.874;2023-11-21T06:04:15;28.43;;;26.13;;
11531;SDS011;5822;51.000;5.874;2023-11-21T06:06:41;28.45;;;26.25;;
11531;SDS011;5822;51.000;5.874;2023-11-21T06:09:06;27.00;;;24.90;;
11531;SDS011;5822;51.000;5.874;2023-11-21T06:11:34;25.97;;;24.07;;
11531;SDS011;5822;51.000;5.874;2023-11-21T06:14:00;26.10;;;24.20;;
11531;SDS011;5822;51.000;5.874;2023-11-21T06:16:25;25.92;;;24.02;;
11531;SDS011;5822;51.000;5.874;2023-11-21T06:18:52;27.25;;;25.15;;
11531;SDS011;5822;51.000;5.874;2023-11-21T06:21:18;27.27;;;25.17;;
11531;SDS011;5822;51.000;5.874;2023-11-21T06:23:44;26.73;;;24.67;;
11531;SDS011;5822;51.000;5.874;2023-11-21T06:26:09;26.10;;;24.20;;
11531;SDS011;5822;51.000;5.874;2023-11-21T06:28:35;26.08;;;24.17;;
11531;SDS011;5822;51.000;5.874;2023-11-21T06:31:01;25.63;;;23.73;;
11531;SDS011;5822;51.000;5.874;2023-11-21T06:33:33;26.17;;;24.27;;
11531;SDS011;5822;51.000;5.874;2023-11-21T06:35:59;27.40;;;25.40;;
11531;SDS011;5822;51.000;5.874;2023-11-21T06:38:28;26.20;;;24.30;;
11531;SDS011;5822;51.000;5.874;2023-11-21T06:40:55;26.58;;;24.58;;
11531;SDS011;5822;51.000;5.874;2023-11-21T06:43:21;25.85;;;23.95;;
11531;SDS011;5822;51.000;5.874;2023-11-21T06:45:47;28.40;;;26.20;;
11531;SDS011;5822;51.000;5.874;2023-11-21T06:48:13;27.37;;;25.27;;
11531;SDS011;5822;51.000;5.874;2023-11-21T06:50:39;27.47;;;25.37;;
11531;SDS011;5822;51.000;5.874;2023-11-21T06:53:04;26.30;;;24.40;;
11531;SDS011;5822;51.000;5.874;2023-11-21T06:55:32;26.73;;;24.73;;
11531;SDS011;5822;51.000;5.874;2023-11-21T06:57:58;26.83;;;24.83;;
11531;SDS011;5822;51.000;5.874;2023-11-21T07:00:25;27.50;;;25.40;;
11531;SDS011;5822;51.000;5.874;2023-11-21T07:02:53;27.90;;;25.80;;
11531;SDS011;5822;51.000;5.874;2023-11-21T07:05:20;26.80;;;24.85;;
11531;SDS011;5822;51.000;5.874;2023-11-21T07:07:46;26.77;;;24.88;;
11531;SDS011;5822;51.000;5.874;2023-11-21T07:10:13;27.42;;;25.50;;
11531;SDS011;5822;51.000;5.874;2023-11-21T07:12:39;27.17;;;25.17;;
11531;SDS011;5822;51.000;5.874;2023-11-21T07:15:05;27.98;;;25.88;;
11531;SDS011;5822;51.000;5.874;2023-11-21T07:17:34;27.88;;;25.88;;
11531;SDS011;5822;51.000;5.874;2023-11-21T07:20:00;28.13;;;26.13;;
11531;SDS011;5822;51.000;5.874;2023-11-21T07:22:26;29.80;;;27.70;;
11531;SDS011;5822;51.000;5.874;2023-11-21T07:24:52;28.30;;;26.30;;
11531;SDS011;5822;51.000;5.874;2023-11-21T07:27:17;27.00;;;25.03;;
11531;SDS011;5822;51.000;5.874;2023-11-21T07:29:43;26.47;;;24.57;;
11531;SDS011;5822;51.000;5.874;2023-11-21T07:32:09;26.97;;;25.07;;
11531;SDS011;5822;51.000;5.874;2023-11-21T07:34:35;26.13;;;24.27;;
11531;SDS011;5822;51.000;5.874;2023-11-21T07:37:01;26.90;;;24.98;;
11531;SDS011;5822;51.000;5.874;2023-11-21T07:39:27;28.58;;;26.40;;
11531;SDS011;5822;51.000;5.874;2023-11-21T07:41:53;29.10;;;26.90;;
11531;SDS011;5822;51.000;5.874;2023-11-21T07:44:19;28.57;;;26.47;;
11531;SDS011;5822;51.000;5.874;2023-11-21T07:46:45;28.37;;;26.27;;
11531;SDS011;5822;51.000;5.874;2023-11-21T07:49:11;29.52;;;27.33;;
11531;SDS011;5822;51.000;5.874;2023-11-21T07:51:39;28.90;;;26.77;;
11531;SDS011;5822;51.000;5.874;2023-11-21T07:54:05;28.83;;;26.73;;
11531;SDS011;5822;51.000;5.874;2023-11-21T07:56:31;28.80;;;26.60;;
11531;SDS011;5822;51.000;5.874;2023-11-21T07:58:57;28.67;;;26.58;;
11531;SDS011;5822;51.000;5.874;2023-11-21T08:01:22;28.67;;;26.48;;
11531;SDS011;5822;51.000;5.874;2023-11-21T08:03:48;28.43;;;26.33;;
11531;SDS011;5822;51.000;5.874;2023-11-21T08:06:16;28.17;;;26.08;;
11531;SDS011;5822;51.000;5.874;2023-11-21T08:08:42;27.95;;;25.88;;
11531;SDS011;5822;51.000;5.874;2023-11-21T08:11:08;28.58;;;26.45;;
11531;SDS011;5822;51.000;5.874;2023-11-21T08:13:35;29.75;;;27.48;;
11531;SDS011;5822;51.000;5.874;2023-11-21T08:16:00;30.02;;;27.73;;
11531;SDS011;5822;51.000;5.874;2023-11-21T08:18:30;28.40;;;26.30;;
11531;SDS011;5822;51.000;5.874;2023-11-21T08:20:56;28.77;;;26.65;;
11531;SDS011;5822;51.000;5.874;2023-11-21T08:23:22;28.80;;;26.58;;
11531;SDS011;5822;51.000;5.874;2023-11-21T08:25:51;29.35;;;27.15;;
11531;SDS011;5822;51.000;5.874;2023-11-21T08:28:17;28.70;;;26.60;;
11531;SDS011;5822;51.000;5.874;2023-11-21T08:30:43;29.00;;;26.90;;
11531;SDS011;5822;51.000;5.874;2023-11-21T08:33:09;28.50;;;26.40;;
11531;SDS011;5822;51.000;5.874;2023-11-21T08:35:36;28.40;;;26.25;;
11531;SDS011;5822;51.000;5.874;2023-11-21T08:38:02;29.52;;;27.33;;
11531;SDS011;5822;51.000;5.874;2023-11-21T08:40:29;29.15;;;26.95;;
11531;SDS011;5822;51.000;5.874;2023-11-21T08:42:55;29.27;;;27.08;;
11531;SDS011;5822;51.000;5.874;2023-11-21T08:45:23;28.70;;;26.60;;
11531;SDS011;5822;51.000;5.874;2023-11-21T08:47:50;29.13;;;26.92;;
11531;SDS011;5822;51.000;5.874;2023-11-21T08:50:16;29.75;;;27.55;;
11531;SDS011;5822;51.000;5.874;2023-11-21T08:52:43;29.23;;;27.02;;
11531;SDS011;5822;51.000;5.874;2023-11-21T08:55:10;29.45;;;27.25;;
11531;SDS011;5822;51.000;5.874;2023-11-21T08:57:37;28.90;;;26.70;;
11531;SDS011;5822;51.000;5.874;2023-11-21T09:00:06;30.13;;;27.77;;
11531;SDS011;5822;51.000;5.874;2023-11-21T09:02:40;31.53;;;29.03;;
11531;SDS011;5822;51.000;5.874;2023-11-21T09:05:09;30.50;;;28.20;;
11531;SDS011;5822;51.000;5.874;2023-11-21T09:07:39;28.23;;;26.13;;
11531;SDS011;5822;51.000;5.874;2023-11-21T09:10:06;27.17;;;25.17;;
11531;SDS011;5822;51.000;5.874;2023-11-21T09:12:32;26.55;;;24.65;;
11531;SDS011;5822;51.000;5.874;2023-11-21T09:15:00;25.33;;;23.52;;
11531;SDS011;5822;51.000;5.874;2023-11-21T09:17:29;25.75;;;23.95;;
11531;SDS011;5822;51.000;5.874;2023-11-21T09:19:55;24.52;;;22.83;;
11531;SDS011;5822;51.000;5.874;2023-11-21T09:22:22;25.48;;;23.67;;
11531;SDS011;5822;51.000;5.874;2023-11-21T09:24:49;25.20;;;23.40;;
11531;SDS011;5822;51.000;5.874;2023-11-21T09:27:15;25.67;;;23.88;;
11531;SDS011;5822;51.000;5.874;2023-11-21T09:29:42;26.00;;;24.20;;
11531;SDS011;5822;51.000;5.874;2023-11-21T09:32:08;27.45;;;25.40;;
11531;SDS011;5822;51.000;5.874;2023-11-21T09:34:37;26.58;;;24.67;;
11531;SDS011;5822;51.000;5.874;2023-11-21T09:37:04;26.33;;;24.43;;
11531;SDS011;5822;51.000;5.874;2023-11-21T09:39:31;27.33;;;25.35;;
11531;SDS011;5822;51.000;5.874;2023-11-21T09:42:12;28.13;;;26.03;;
11531;SDS011;5822;51.000;5.874;2023-11-21T09:47:26;29.42;;;27.15;;
11531;SDS011;5822;51.000;5.874;2023-11-21T09:49:52;29.55;;;27.25;;
11531;SDS011;5822;51.000;5.874;2023-11-21T09:52:26;28.38;;;26.27;;
11531;SDS011;5822;51.000;5.874;2023-11-21T09:54:53;28.87;;;26.60;;
11531;SDS011;5822;51.000;5.874;2023-11-21T09:57:23;28.65;;;26.40;;
11531;SDS011;5822;51.000;5.874;2023-11-21T09:59:50;26.35;;;24.45;;
11531;SDS011;5822;51.000;5.874;2023-11-21T10:02:22;27.67;;;25.58;;
11531;SDS011;5822;51.000;5.874;2023-11-21T10:04:51;26.50;;;24.53;;
11531;SDS011;5822;51.000;5.874;2023-11-21T10:07:17;25.50;;;23.63;;
11531;SDS011;5822;51.000;5.874;2023-11-21T10:09:45;26.33;;;24.25;;
11531;SDS011;5822;51.000;5.874;2023-11-21T10:12:13;26.60;;;24.60;;
11531;SDS011;5822;51.000;5.874;2023-11-21T10:14:40;25.90;;;24.00;;
11531;SDS011;5822;51.000;5.874;2023-11-21T10:17:09;25.45;;;23.55;;
11531;SDS011;5822;51.000;5.874;2023-11-21T10:19:37;25.40;;;23.50;;
11531;SDS011;5822;51.000;5.874;2023-11-21T10:22:04;25.52;;;23.52;;
11531;SDS011;5822;51.000;5.874;2023-11-21T10:24:32;24.98;;;23.15;;
11531;SDS011;5822;51.000;5.874;2023-11-21T10:26:58;26.30;;;24.30;;
11531;SDS011;5822;51.000;5.874;2023-11-21T10:29:24;24.45;;;22.67;;
11531;SDS011;5822;51.000;5.874;2023-11-21T10:31:54;24.13;;;22.42;;
11531;SDS011;5822;51.000;5.874;2023-11-21T10:34:20;24.55;;;22.77;;
11531;SDS011;5822;51.000;5.874;2023-11-21T10:36:46;23.45;;;21.75;;
11531;SDS011;5822;51.000;5.874;2023-11-21T10:39:16;24.02;;;22.33;;
11531;SDS011;5822;51.000;5.874;2023-11-21T10:41:46;23.30;;;21.70;;
11531;SDS011;5822;51.000;5.874;2023-11-21T10:44:19;23.55;;;21.85;;
11531;SDS011;5822;51.000;5.874;2023-11-21T10:46:51;23.40;;;21.70;;
11531;SDS011;5822;51.000;5.874;2023-11-21T10:49:26;23.88;;;22.08;;
11531;SDS011;5822;51.000;5.874;2023-11-21T10:51:52;24.92;;;23.13;;
11531;SDS011;5822;51.000;5.874;2023-11-21T10:54:22;25.55;;;23.65;;
11531;SDS011;5822;51.000;5.874;2023-11-21T10:56:49;25.70;;;23.80;;
11531;SDS011;5822;51.000;5.874;2023-11-21T10:59:18;26.77;;;24.77;;
11531;SDS011;5822;51.000;5.874;2023-11-21T11:01:46;26.65;;;24.65;;
11531;SDS011;5822;51.000;5.874;2023-11-21T11:04:14;28.05;;;25.95;;
11531;SDS011;5822;51.000;5.874;2023-11-21T11:06:43;28.47;;;26.37;;
11531;SDS011;5822;51.000;5.874;2023-11-21T11:09:13;29.50;;;27.30;;
11531;SDS011;5822;51.000;5.874;2023-11-21T11:11:39;30.52;;;28.23;;
11531;SDS011;5822;51.000;5.874;2023-11-21T11:14:07;29.33;;;27.13;;
11531;SDS011;5822;51.000;5.874;2023-11-21T11:16:36;29.27;;;27.08;;
11531;SDS011;5822;51.000;5.874;2023-11-21T11:19:08;28.35;;;26.25;;
11531;SDS011;5822;51.000;5.874;2023-11-21T11:29:33;24.13;;;22.43;;
11531;SDS011;5822;51.000;5.874;2023-11-21T11:35:07;26.23;;;24.33;;
11531;SDS011;5822;51.000;5.874;2023-11-21T11:37:41;25.50;;;23.70;;
11531;SDS011;5822;51.000;5.874;2023-11-21T11:40:07;25.30;;;23.58;;
11531;SDS011;5822;51.000;5.874;2023-11-21T11:42:35;26.23;;;24.33;;
11531;SDS011;5822;51.000;5.874;2023-11-21T11:45:01;25.07;;;23.37;;
11531;SDS011;5822;51.000;5.874;2023-11-21T11:47:32;25.05;;;23.25;;
11531;SDS011;5822;51.000;5.874;2023-11-21T11:50:02;23.95;;;22.25;;
11531;SDS011;5822;51.000;5.874;2023-11-21T11:52:42;23.92;;;22.23;;
11531;SDS011;5822;51.000;5.874;2023-11-21T11:55:12;23.95;;;22.25;;
11531;SDS011;5822;51.000;5.874;2023-11-21T11:57:39;24.17;;;22.43;;
11531;SDS011;5822;51.000;5.874;2023-11-21T12:00:09;23.58;;;21.88;;
11531;SDS011;5822;51.000;5.874;2023-11-21T12:02:47;22.48;;;20.90;;
11531;SDS011;5822;51.000;5.874;2023-11-21T12:05:17;23.85;;;22.15;;
11531;SDS011;5822;51.000;5.874;2023-11-21T12:07:48;23.60;;;21.90;;
11531;SDS011;5822;51.000;5.874;2023-11-21T12:10:19;23.13;;;21.53;;
11531;SDS011;5822;51.000;5.874;2023-11-21T12:12:51;23.55;;;21.95;;
11531;SDS011;5822;51.000;5.874;2023-11-21T12:15:18;24.48;;;22.77;;
11531;SDS011;5822;51.000;5.874;2023-11-21T12:17:45;23.63;;;22.00;;
11531;SDS011;5822;51.000;5.874;2023-11-21T12:20:13;23.83;;;22.20;;
11531;SDS011;5822;51.000;5.874;2023-11-21T12:22:43;23.88;;;22.17;;
11531;SDS011;5822;51.000;5.874;2023-11-21T12:25:12;24.60;;;22.83;;
11531;SDS011;5822;51.000;5.874;2023-11-21T12:27:41;25.77;;;23.90;;
11531;SDS011;5822;51.000;5.874;2023-11-21T12:30:07;25.00;;;23.25;;
11531;SDS011;5822;51.000;5.874;2023-11-21T12:32:38;24.85;;;23.13;;
11531;SDS011;5822;51.000;5.874;2023-11-21T12:35:06;25.60;;;23.70;;
11531;SDS011;5822;51.000;5.874;2023-11-21T12:37:33;25.30;;;23.52;;
11531;SDS011;5822;51.000;5.874;2023-11-21T12:39:59;25.20;;;23.40;;
11531;SDS011;5822;51.000;5.874;2023-11-21T12:42:24;23.70;;;22.10;;
11531;SDS011;5822;51.000;5.874;2023-11-21T12:45:07;24.15;;;22.50;;
11531;SDS011;5822;51.000;5.874;2023-11-21T12:47:44;23.58;;;21.98;;
11531;SDS011;5822;51.000;5.874;2023-11-21T12:50:10;23.55;;;21.95;;
11531;SDS011;5822;51.000;5.874;2023-11-21T12:52:45;23.37;;;21.77;;
11531;SDS011;5822;51.000;5.874;2023-11-21T12:55:17;23.42;;;21.83;;
11531;SDS011;5822;51.000;5.874;2023-11-21T12:57:47;22.80;;;21.20;;
11531;SDS011;5822;51.000;5.874;2023-11-21T13:00:16;22.75;;;21.25;;
11531;SDS011;5822;51.000;5.874;2023-11-21T13:02:54;23.73;;;22.13;;
11531;SDS011;5822;51.000;5.874;2023-11-21T13:05:33;22.87;;;21.37;;
11531;SDS011;5822;51.000;5.874;2023-11-21T13:08:13;23.13;;;21.52;;
11531;SDS011;5822;51.000;5.874;2023-11-21T13:10:44;23.23;;;21.63;;
11531;SDS011;5822;51.000;5.874;2023-11-21T13:13:12;21.88;;;20.38;;
11531;SDS011;5822;51.000;5.874;2023-11-21T13:15:47;22.65;;;21.13;;
11531;SDS011;5822;51.000;5.874;2023-11-21T13:18:17;22.13;;;20.63;;
11531;SDS011;5822;51.000;5.874;2023-11-21T13:20:43;21.20;;;19.80;;
11531;SDS011;5822;51.000;5.874;2023-11-21T13:23:10;21.50;;;20.10;;
11531;SDS011;5822;51.000;5.874;2023-11-21T13:25:41;21.40;;;20.00;;
11531;SDS011;5822;51.000;5.874;2023-11-21T13:28:13;20.90;;;19.50;;
11531;SDS011;5822;51.000;5.874;2023-11-21T13:30:45;20.23;;;18.98;;
11531;SDS011;5822;51.000;5.874;2023-11-21T13:33:11;19.90;;;18.70;;
11531;SDS011;5822;51.000;5.874;2023-11-21T13:35:42;19.70;;;18.50;;
11531;SDS011;5822;51.000;5.874;2023-11-21T13:38:15;20.85;;;19.48;;
11531;SDS011;5822;51.000;5.874;2023-11-21T13:40:47;21.67;;;20.27;;
11531;SDS011;5822;51.000;5.874;2023-11-21T13:43:21;21.15;;;19.75;;
11531;SDS011;5822;51.000;5.874;2023-11-21T13:45:49;21.05;;;19.75;;
11531;SDS011;5822;51.000;5.874;2023-11-21T13:48:20;19.90;;;18.70;;
11531;SDS011;5822;51.000;5.874;2023-11-21T13:50:53;19.90;;;18.70;;
11531;SDS011;5822;51.000;5.874;2023-11-21T13:53:26;20.27;;;19.08;;
11531;SDS011;5822;51.000;5.874;2023-11-21T13:55:55;20.15;;;18.88;;
11531;SDS011;5822;51.000;5.874;2023-11-21T13:58:24;20.23;;;19.00;;
11531;SDS011;5822;51.000;5.874;2023-11-21T14:01:09;20.58;;;19.27;;
11531;SDS011;5822;51.000;5.874;2023-11-21T14:03:49;21.25;;;19.85;;
11531;SDS011;5822;51.000;5.874;2023-11-21T14:06:21;20.75;;;19.45;;
11531;SDS011;5822;51.000;5.874;2023-11-21T14:08:53;20.38;;;19.17;;
11531;SDS011;5822;51.000;5.874;2023-11-21T14:11:21;20.50;;;19.20;;
11531;SDS011;5822;51.000;5.874;2023-11-21T14:13:47;19.58;;;18.38;;
11531;SDS011;5822;51.000;5.874;2023-11-21T14:16:13;20.08;;;18.88;;
11531;SDS011;5822;51.000;5.874;2023-11-21T14:18:42;20.27;;;19.08;;
11531;SDS011;5822;51.000;5.874;2023-11-21T14:21:20;19.45;;;18.25;;
11531;SDS011;5822;51.000;5.874;2023-11-21T14:23:46;20.05;;;18.85;;
11531;SDS011;5822;51.000;5.874;2023-11-21T14:26:13;19.92;;;18.73;;
11531;SDS011;5822;51.000;5.874;2023-11-21T14:28:40;20.00;;;18.80;;
11531;SDS011;5822;51.000;5.874;2023-11-21T14:31:06;20.90;;;19.63;;
11531;SDS011;5822;51.000;5.874;2023-11-21T14:33:33;20.85;;;19.55;;
11531;SDS011;5822;51.000;5.874;2023-11-21T14:35:59;19.67;;;18.50;;
11531;SDS011;5822;51.000;5.874;2023-11-21T14:38:24;20.70;;;19.40;;
11531;SDS011;5822;51.000;5.874;2023-11-21T14:40:50;19.47;;;18.37;;
11531;SDS011;5822;51.000;5.874;2023-11-21T14:43:15;19.87;;;18.73;;
11531;SDS011;5822;51.000;5.874;2023-11-21T14:45:44;20.87;;;19.57;;
11531;SDS011;5822;51.000;5.874;2023-11-21T14:48:09;20.70;;;19.50;;